createdAt,value
2017-09-10T00:01:17.853Z,12.18
2017-09-10T00:03:44.010Z,10.60
2017-09-10T00:06:10.151Z,14.25
2017-09-10T00:08:36.272Z,10.63
2017-09-10T00:11:02.395Z,13.73
2017-09-10T00:13:28.557Z,12.25
2017-09-10T00:15:54.703Z,11.35
2017-09-10T00:18:20.846Z,13.68
2017-09-10T00:20:47.712Z,11.73
2017-09-10T00:23:13.862Z,11.07
2017-09-10T00:25:40.036Z,12.05
2017-09-10T00:28:06.202Z,14.85
2017-09-10T00:30:32.365Z,14.52
2017-09-10T00:32:58.546Z,13.77
2017-09-10T00:35:24.677Z,13.00
2017-09-10T00:37:51.567Z,16.10
2017-09-10T00:40:17.706Z,15.05
2017-09-10T00:42:44.583Z,15.82
2017-09-10T00:45:10.745Z,19.17
2017-09-10T00:47:36.905Z,18.80
2017-09-10T00:50:03.083Z,17.08
2017-09-10T00:52:29.959Z,15.45
2017-09-10T00:54:56.254Z,19.67
2017-09-10T00:57:22.403Z,15.70
2017-09-10T00:59:48.724Z,14.68
2017-09-10T01:02:15.601Z,15.90
2017-09-10T01:04:41.730Z,17.50
2017-09-10T01:07:07.884Z,16.15
2017-09-10T01:09:34.303Z,14.00
2017-09-10T01:12:00.438Z,13.62
2017-09-10T01:14:27.305Z,16.42
2017-09-10T01:16:53.458Z,16.10
2017-09-10T01:19:20.184Z,16.67
2017-09-10T01:21:47.265Z,16.75
2017-09-10T01:24:13.633Z,20.90
2017-09-10T01:26:39.985Z,15.23
2017-09-10T01:29:06.285Z,15.10
2017-09-10T01:31:33.391Z,13.60
2017-09-10T01:33:59.542Z,13.25
2017-09-10T01:36:25.674Z,15.38
2017-09-10T01:38:51.806Z,13.52
2017-09-10T01:41:18.694Z,18.90
2017-09-10T01:43:44.826Z,17.83
2017-09-10T01:46:11.139Z,18.08
2017-09-10T01:48:37.462Z,19.08
2017-09-10T01:51:03.819Z,20.83
2017-09-10T01:53:30.870Z,17.25
2017-09-10T01:55:57.190Z,21.58
2017-09-10T01:58:23.557Z,20.70
2017-09-10T02:00:49.893Z,24.70
2017-09-10T02:03:16.212Z,22.17
2017-09-10T02:05:43.281Z,24.55
2017-09-10T02:08:10.342Z,25.52
2017-09-10T02:10:36.635Z,22.95
2017-09-10T02:13:02.822Z,18.15
2017-09-10T02:15:29.144Z,15.02
2017-09-10T02:17:55.456Z,21.70
2017-09-10T02:20:21.766Z,20.15
2017-09-10T02:22:48.086Z,18.33
2017-09-10T02:25:14.450Z,21.48
2017-09-10T02:27:41.217Z,21.52
2017-09-10T02:30:07.518Z,21.30
2017-09-10T02:32:34.573Z,18.67
2017-09-10T02:35:00.965Z,22.95
2017-09-10T02:37:27.318Z,18.92
2017-09-10T02:39:53.642Z,21.92
2017-09-10T02:42:20.010Z,17.98
2017-09-10T02:44:47.046Z,17.62
2017-09-10T02:47:14.193Z,20.70
2017-09-10T02:49:42.016Z,19.40
2017-09-10T02:52:09.110Z,17.95
2017-09-10T02:54:35.431Z,20.65
2017-09-10T02:57:01.778Z,15.50
2017-09-10T02:59:28.582Z,14.82
2017-09-10T03:01:54.918Z,17.10
2017-09-10T03:04:21.237Z,17.90
2017-09-10T03:06:48.281Z,15.38
2017-09-10T03:09:14.637Z,20.12
2017-09-10T03:11:40.982Z,15.02
2017-09-10T03:14:07.285Z,18.30
2017-09-10T03:16:33.639Z,26.50
2017-09-10T03:18:59.939Z,13.30
2017-09-10T03:21:27.010Z,16.08
2017-09-10T03:23:54.062Z,15.30
2017-09-10T03:26:20.386Z,13.05
2017-09-10T03:28:46.708Z,14.50
2017-09-10T03:31:13.038Z,14.30
2017-09-10T03:33:39.333Z,13.65
2017-09-10T03:36:06.713Z,20.33
2017-09-10T03:38:33.786Z,17.52
2017-09-10T03:41:00.073Z,16.50
2017-09-10T03:43:26.395Z,13.95
2017-09-10T03:45:55.963Z,17.20
2017-09-10T03:48:22.320Z,14.73
2017-09-10T03:50:48.652Z,15.93
2017-09-10T03:53:15.049Z,12.30
2017-09-10T03:55:41.357Z,14.27
2017-09-10T03:58:08.441Z,13.05
2017-09-10T04:00:34.754Z,13.23
2017-09-10T04:03:01.085Z,15.38
2017-09-10T04:05:27.428Z,21.30
2017-09-10T04:07:53.782Z,18.48
2017-09-10T04:10:20.114Z,17.30
2017-09-10T04:12:46.438Z,15.00
2017-09-10T04:15:12.840Z,14.25
2017-09-10T04:17:39.182Z,18.48
2017-09-10T04:20:06.239Z,15.10
2017-09-10T04:22:32.599Z,13.60
2017-09-10T04:24:58.958Z,15.00
2017-09-10T04:27:25.288Z,16.15
2017-09-10T04:29:51.615Z,13.95
2017-09-10T04:32:17.957Z,17.83
2017-09-10T04:34:44.313Z,20.75
2017-09-10T04:37:10.641Z,16.52
2017-09-10T04:39:37.717Z,19.70
2017-09-10T04:42:04.083Z,19.85
2017-09-10T04:44:30.458Z,18.45
2017-09-10T04:46:56.825Z,16.05
2017-09-10T04:49:23.158Z,15.63
2017-09-10T04:51:50.621Z,18.85
2017-09-10T04:54:17.002Z,14.50
2017-09-10T04:56:43.383Z,18.60
2017-09-10T04:59:09.735Z,14.70
2017-09-10T05:01:36.104Z,17.85
2017-09-10T05:04:02.465Z,17.12
2017-09-10T05:06:28.817Z,14.18
2017-09-10T05:08:55.170Z,15.38
2017-09-10T05:11:21.542Z,16.20
2017-09-10T05:13:48.637Z,14.93
2017-09-10T05:16:15.007Z,16.60
2017-09-10T05:18:41.395Z,18.80
2017-09-10T05:21:07.767Z,15.38
2017-09-10T05:23:34.082Z,18.27
2017-09-10T05:26:00.425Z,15.98
2017-09-10T05:28:26.783Z,19.95
2017-09-10T05:30:53.146Z,19.77
2017-09-10T05:33:20.273Z,15.38
2017-09-10T05:35:47.371Z,15.70
2017-09-10T05:38:13.704Z,15.23
2017-09-10T05:40:40.122Z,17.37
2017-09-10T05:43:06.530Z,15.05
2017-09-10T05:45:32.882Z,18.23
2017-09-10T05:48:00.026Z,19.48
2017-09-10T05:50:26.340Z,23.87
2017-09-10T05:52:52.682Z,17.60
2017-09-10T05:55:19.021Z,16.90
2017-09-10T05:57:47.061Z,17.23
2017-09-10T06:00:13.380Z,19.10
2017-09-10T06:02:40.210Z,15.65
2017-09-10T06:05:06.566Z,19.85
2017-09-10T06:07:32.878Z,14.45
2017-09-10T06:09:59.965Z,14.70
2017-09-10T06:12:26.287Z,15.77
2017-09-10T06:14:52.631Z,14.90
2017-09-10T06:17:18.973Z,13.15
2017-09-10T06:19:45.313Z,15.82
2017-09-10T06:22:12.053Z,17.37
2017-09-10T06:24:38.388Z,14.10
2017-09-10T06:27:04.733Z,21.05
2017-09-10T06:29:31.818Z,14.85
2017-09-10T06:31:58.580Z,14.30
2017-09-10T06:34:25.680Z,13.55
2017-09-10T06:36:52.013Z,13.83
2017-09-10T06:39:18.400Z,16.70
2017-09-10T06:41:44.727Z,14.67
2017-09-10T06:44:11.084Z,15.43
2017-09-10T06:46:38.182Z,14.65
2017-09-10T06:49:04.522Z,17.73
2017-09-10T06:51:30.878Z,14.10
2017-09-10T06:53:57.249Z,16.08
2017-09-10T06:56:23.633Z,13.15
2017-09-10T06:58:50.064Z,17.30
2017-09-10T07:01:16.421Z,15.68
2017-09-10T07:03:42.847Z,11.23
2017-09-10T07:06:09.205Z,12.77
2017-09-10T07:08:35.589Z,14.05
2017-09-10T07:11:01.931Z,12.77
2017-09-10T07:13:28.329Z,18.23
2017-09-10T07:15:58.625Z,13.93
2017-09-10T07:18:24.957Z,13.62
2017-09-10T07:20:51.286Z,12.55
2017-09-10T07:23:17.669Z,11.93
2017-09-10T07:25:44.199Z,9.45
2017-09-10T07:28:10.541Z,13.18
2017-09-10T07:30:36.881Z,9.93
2017-09-10T07:33:03.190Z,10.70
2017-09-10T07:35:29.561Z,15.93
2017-09-10T07:37:55.950Z,9.27
2017-09-10T07:40:23.044Z,12.45
2017-09-10T07:42:49.385Z,10.30
2017-09-10T07:45:15.748Z,11.83
2017-09-10T07:47:42.088Z,10.80
2017-09-10T07:50:08.428Z,13.27
2017-09-10T07:52:35.504Z,10.40
2017-09-10T07:55:01.836Z,10.93
2017-09-10T07:57:28.173Z,8.00
2017-09-10T07:59:58.270Z,7.83
2017-09-10T08:02:24.597Z,12.27
2017-09-10T08:04:50.945Z,9.73
2017-09-10T08:07:17.287Z,9.87
2017-09-10T08:09:43.607Z,9.03
2017-09-10T08:12:09.943Z,9.80
2017-09-10T08:14:36.277Z,11.13
2017-09-10T08:19:34.698Z,8.63
2017-09-10T08:22:00.996Z,6.07
2017-09-10T08:24:27.113Z,10.90
2017-09-10T08:26:53.256Z,14.77
2017-09-10T08:29:19.368Z,7.40
2017-09-10T08:31:45.501Z,11.53
2017-09-10T08:34:11.650Z,7.27
2017-09-10T08:36:37.800Z,6.40
2017-09-10T08:39:05.775Z,6.00
2017-09-10T08:41:31.980Z,8.67
2017-09-10T08:43:58.305Z,8.83
2017-09-10T08:46:25.200Z,8.20
2017-09-10T08:48:51.337Z,6.77
2017-09-10T08:51:18.261Z,6.57
2017-09-10T08:53:44.419Z,11.03
2017-09-10T08:56:10.709Z,10.53
2017-09-10T08:58:43.442Z,5.80
2017-09-10T09:01:09.615Z,4.80
2017-09-10T09:03:35.765Z,10.67
2017-09-10T09:06:01.918Z,10.73
2017-09-10T09:08:28.109Z,5.87
2017-09-10T09:10:54.243Z,7.63
2017-09-10T09:13:25.752Z,5.67
2017-09-10T09:15:52.703Z,6.40
2017-09-10T09:18:19.577Z,12.93
2017-09-10T09:20:45.711Z,5.93
2017-09-10T09:23:13.519Z,4.83
2017-09-10T09:25:39.680Z,9.10
2017-09-10T09:28:06.533Z,12.03
2017-09-10T09:30:32.655Z,8.63
2017-09-10T09:32:59.980Z,7.13
2017-09-10T09:35:26.109Z,10.30
2017-09-10T09:37:52.258Z,18.77
2017-09-10T09:40:18.386Z,6.87
2017-09-10T09:42:45.278Z,8.13
2017-09-10T09:45:11.451Z,9.63
2017-09-10T09:47:37.603Z,7.77
2017-09-10T09:50:03.839Z,7.20
2017-09-10T09:52:30.005Z,3.90
2017-09-10T09:54:57.991Z,7.40
2017-09-10T09:57:24.157Z,5.93
2017-09-10T09:59:50.318Z,5.20
2017-09-10T10:02:17.230Z,4.93
2017-09-10T10:04:43.457Z,6.27
2017-09-10T10:07:09.602Z,3.47
2017-09-10T10:09:43.017Z,4.53
2017-09-10T10:12:09.162Z,4.90
2017-09-10T10:14:35.385Z,4.83
2017-09-10T10:17:01.565Z,4.83
2017-09-10T10:19:27.718Z,4.73
2017-09-10T10:21:53.960Z,4.00
2017-09-10T10:24:25.508Z,3.20
2017-09-10T10:26:51.692Z,7.07
2017-09-10T10:29:17.871Z,5.37
2017-09-10T10:31:44.040Z,2.40
2017-09-10T10:34:10.189Z,3.70
2017-09-10T10:36:36.351Z,3.00
2017-09-10T10:39:03.294Z,3.43
2017-09-10T10:41:29.445Z,4.30
2017-09-10T10:43:57.474Z,3.20
2017-09-10T10:46:23.645Z,3.97
2017-09-10T10:48:49.831Z,2.77
2017-09-10T10:51:15.989Z,3.30
2017-09-10T10:53:42.126Z,2.03
2017-09-10T10:56:08.274Z,1.77
2017-09-10T10:58:34.427Z,2.70
2017-09-10T11:01:00.601Z,3.17
2017-09-10T11:03:34.165Z,3.10
2017-09-10T11:06:00.379Z,5.47
2017-09-10T11:08:26.541Z,4.80
2017-09-10T11:10:52.675Z,3.47
2017-09-10T11:13:18.816Z,4.07
2017-09-10T11:15:44.975Z,3.93
2017-09-10T11:18:11.121Z,3.37
2017-09-10T11:20:44.132Z,3.43
2017-09-10T11:23:11.020Z,3.93
2017-09-10T11:25:37.175Z,4.00
2017-09-10T11:28:03.328Z,3.17
2017-09-10T11:30:29.482Z,2.83
2017-09-10T11:32:55.639Z,5.80
2017-09-10T11:35:21.792Z,3.37
2017-09-10T11:37:47.961Z,4.43
2017-09-10T11:40:17.726Z,3.60
2017-09-10T11:42:44.632Z,4.63
2017-09-10T11:45:11.034Z,2.43
2017-09-10T11:47:37.256Z,2.40
2017-09-10T11:50:03.420Z,2.20
2017-09-10T11:52:29.536Z,4.80
2017-09-10T11:54:55.699Z,3.27
2017-09-10T11:57:23.669Z,4.70
2017-09-10T11:59:50.534Z,2.70
2017-09-10T12:02:16.670Z,1.97
2017-09-10T12:04:42.838Z,2.10
2017-09-10T12:07:09.038Z,3.30
2017-09-10T12:09:35.940Z,2.70
2017-09-10T12:12:02.100Z,2.63
2017-09-10T12:14:33.453Z,1.93
2017-09-10T12:16:59.663Z,2.23
2017-09-10T12:19:25.840Z,2.10
2017-09-10T12:21:52.061Z,3.70
2017-09-10T12:24:18.993Z,6.83
2017-09-10T12:26:45.886Z,3.50
2017-09-10T12:29:12.054Z,2.90
2017-09-10T12:31:38.216Z,2.50
2017-09-10T12:34:09.320Z,2.87
2017-09-10T12:36:35.494Z,2.83
2017-09-10T12:39:01.703Z,4.10
2017-09-10T12:41:27.858Z,2.47
2017-09-10T12:43:54.018Z,2.00
2017-09-10T12:46:20.225Z,2.37
2017-09-10T12:48:47.093Z,3.00
2017-09-10T12:51:13.236Z,3.00
2017-09-10T12:53:44.193Z,6.30
2017-09-10T12:56:10.345Z,1.47
2017-09-10T12:58:36.474Z,2.17
2017-09-10T13:01:02.742Z,2.97
2017-09-10T13:03:28.893Z,1.57
2017-09-10T13:05:55.023Z,2.13
2017-09-10T13:08:21.211Z,3.90
2017-09-10T13:10:47.346Z,2.00
2017-09-10T13:13:13.488Z,2.40
2017-09-10T13:15:39.689Z,2.63
2017-09-10T13:18:05.847Z,2.70
2017-09-10T13:23:03.842Z,4.90
2017-09-10T13:25:30.743Z,2.67
2017-09-10T13:27:59.728Z,4.60
2017-09-10T13:30:25.956Z,2.53
2017-09-10T13:32:52.103Z,2.73
2017-09-10T13:35:18.293Z,2.60
2017-09-10T13:37:44.480Z,2.47
2017-09-10T13:40:10.660Z,3.50
2017-09-10T13:42:36.830Z,3.23
2017-09-10T13:45:05.287Z,4.60
2017-09-10T13:47:31.513Z,3.07
2017-09-10T13:49:57.721Z,2.13
2017-09-10T13:52:23.891Z,2.73
2017-09-10T13:54:50.044Z,3.90
2017-09-10T13:57:16.923Z,2.73
2017-09-10T13:59:43.085Z,2.70
2017-09-10T14:02:09.224Z,1.67
2017-09-10T14:04:36.862Z,2.90
2017-09-10T14:07:03.013Z,1.23
2017-09-10T14:09:29.187Z,2.00
2017-09-10T14:11:55.337Z,1.10
2017-09-10T14:14:21.492Z,1.33
2017-09-10T14:16:47.621Z,2.20
2017-09-10T14:19:14.568Z,1.43
2017-09-10T14:21:45.624Z,2.20
2017-09-10T14:24:11.877Z,2.10
2017-09-10T14:26:38.081Z,4.33
2017-09-10T14:29:04.210Z,1.27
2017-09-10T14:31:30.356Z,2.40
2017-09-10T14:33:56.550Z,1.67
2017-09-10T14:36:22.699Z,3.90
2017-09-10T14:38:52.086Z,2.10
2017-09-10T14:41:18.275Z,2.83
2017-09-10T14:43:44.442Z,2.10
2017-09-10T14:46:10.602Z,1.47
2017-09-10T14:48:36.754Z,3.20
2017-09-10T14:51:02.920Z,1.50
2017-09-10T14:53:29.068Z,1.90
2017-09-10T14:55:55.221Z,1.83
2017-09-10T14:58:26.428Z,2.87
2017-09-10T15:00:52.586Z,3.37
2017-09-10T15:03:21.865Z,2.30
2017-09-10T15:05:48.057Z,2.40
2017-09-10T15:08:14.322Z,5.00
2017-09-10T15:10:41.219Z,1.60
2017-09-10T15:13:07.361Z,2.40
2017-09-10T15:15:37.119Z,1.97
2017-09-10T15:18:03.283Z,5.50
2017-09-10T15:20:30.208Z,1.87
2017-09-10T15:22:56.379Z,1.73
2017-09-10T15:25:22.532Z,1.90
2017-09-10T15:27:49.452Z,2.30
2017-09-10T15:30:15.645Z,2.20
2017-09-10T15:32:41.819Z,2.33
2017-09-10T15:35:07.982Z,2.20
2017-09-10T15:37:34.516Z,4.50
2017-09-10T15:40:00.739Z,2.83
2017-09-10T15:42:26.922Z,3.30
2017-09-10T15:44:53.846Z,3.50
2017-09-10T15:47:20.022Z,2.60
2017-09-10T15:49:46.188Z,2.90
2017-09-10T15:52:12.330Z,1.70
2017-09-10T15:54:40.577Z,1.57
2017-09-10T15:57:06.768Z,2.60
2017-09-10T15:59:33.912Z,3.33
2017-09-10T16:02:00.156Z,2.83
2017-09-10T16:04:26.375Z,3.00
2017-09-10T16:06:52.522Z,2.50
2017-09-10T16:09:19.387Z,2.77
2017-09-10T16:11:49.872Z,4.90
2017-09-10T16:14:16.779Z,2.77
2017-09-10T16:16:42.948Z,2.77
2017-09-10T16:19:09.103Z,1.87
2017-09-10T16:21:35.269Z,2.93
2017-09-10T16:24:01.421Z,2.70
2017-09-10T16:26:27.586Z,3.13
2017-09-10T16:28:53.746Z,3.37
2017-09-10T16:31:21.327Z,2.77
2017-09-10T16:33:47.590Z,5.60
2017-09-10T16:36:14.501Z,3.47
2017-09-10T16:38:40.667Z,2.40
2017-09-10T16:41:07.536Z,3.87
2017-09-10T16:43:33.709Z,4.53
2017-09-10T16:45:59.860Z,3.53
2017-09-10T16:48:26.073Z,2.00
2017-09-10T16:50:57.561Z,2.83
2017-09-10T16:53:24.484Z,2.90
2017-09-10T16:55:51.414Z,2.73
2017-09-10T16:58:18.332Z,2.60
2017-09-10T17:00:44.505Z,2.20
2017-09-10T17:03:10.699Z,2.33
2017-09-10T17:05:36.852Z,2.17
2017-09-10T17:08:09.433Z,3.90
2017-09-10T17:10:35.786Z,2.50
2017-09-10T17:13:02.138Z,2.30
2017-09-10T17:15:28.485Z,1.73
2017-09-10T17:17:54.856Z,1.77
2017-09-10T17:20:21.186Z,2.87
2017-09-10T17:22:47.546Z,3.07
2017-09-10T17:25:17.302Z,1.43
2017-09-10T17:27:43.650Z,2.00
2017-09-10T17:30:10.015Z,7.23
2017-09-10T17:32:36.346Z,2.00
2017-09-10T17:35:02.713Z,2.60
2017-09-10T17:37:29.060Z,3.90
2017-09-10T17:40:03.845Z,3.43
2017-09-10T17:42:30.179Z,4.20
2017-09-10T17:44:56.548Z,2.90
2017-09-10T17:47:22.902Z,1.40
2017-09-10T17:49:49.221Z,2.07
2017-09-10T17:52:15.599Z,3.43
2017-09-10T17:54:41.982Z,3.40
2017-09-10T18:10:27.938Z,1.93
2017-09-10T18:12:54.313Z,1.50
2017-09-10T18:15:20.668Z,3.40
2017-09-10T18:17:47.019Z,3.20
2017-09-10T18:20:16.841Z,3.50
2017-09-10T18:22:43.200Z,2.97
2017-09-10T18:25:09.553Z,2.93
2017-09-10T18:27:35.933Z,3.57
2017-09-10T18:30:02.261Z,2.20
2017-09-10T18:32:28.633Z,3.37
2017-09-10T18:34:54.991Z,1.97
2017-09-10T18:37:21.338Z,3.03
2017-09-10T18:39:47.740Z,2.17
2017-09-10T18:42:17.717Z,3.30
2017-09-10T18:44:44.046Z,3.90
2017-09-10T18:47:10.407Z,5.93
2017-09-10T18:49:36.721Z,2.20
2017-09-10T18:52:03.060Z,2.30
2017-09-10T18:54:30.871Z,2.50
2017-09-10T18:56:57.046Z,2.37
2017-09-10T18:59:23.221Z,1.70
2017-09-10T19:01:49.449Z,1.90
2017-09-10T19:04:15.648Z,2.57
2017-09-10T19:06:43.352Z,3.80
2017-09-10T19:09:09.492Z,2.60
2017-09-10T19:11:35.704Z,2.47
2017-09-10T19:14:01.959Z,1.60
2017-09-10T19:16:28.109Z,4.77
2017-09-10T19:18:55.070Z,2.17
2017-09-10T19:21:21.946Z,2.53
2017-09-10T19:23:48.092Z,1.70
2017-09-10T19:26:15.090Z,3.03
2017-09-10T19:28:41.229Z,3.30
2017-09-10T19:31:07.371Z,1.90
2017-09-10T19:33:33.725Z,1.50
2017-09-10T19:36:01.051Z,2.13
2017-09-10T19:38:27.418Z,2.80
2017-09-10T19:40:53.821Z,2.53
2017-09-10T19:43:20.173Z,1.70
2017-09-10T19:45:46.549Z,1.67
2017-09-10T19:48:12.880Z,1.63
2017-09-10T19:50:39.545Z,1.67
2017-09-10T19:53:05.953Z,2.83
2017-09-10T19:55:33.576Z,1.83
2017-09-10T19:57:59.970Z,1.83
2017-09-10T20:00:26.511Z,1.40
2017-09-10T20:02:52.951Z,3.13
2017-09-10T20:05:20.029Z,3.67
2017-09-10T20:07:47.114Z,2.00
2017-09-10T20:10:14.297Z,1.40
2017-09-10T20:12:40.784Z,4.63
2017-09-10T20:15:07.164Z,2.20
2017-09-10T20:17:33.639Z,1.70
2017-09-10T20:19:59.977Z,1.57
2017-09-10T20:22:26.326Z,3.47
2017-09-10T20:24:53.438Z,1.60
2017-09-10T20:27:19.762Z,1.30
2017-09-10T20:29:46.096Z,1.97
2017-09-10T20:32:12.413Z,1.60
2017-09-10T20:34:39.493Z,1.40
2017-09-10T20:37:05.822Z,1.83
2017-09-10T20:39:32.258Z,1.93
2017-09-10T20:41:58.595Z,2.40
2017-09-10T20:44:25.743Z,1.93
2017-09-10T20:46:52.102Z,3.03
2017-09-10T20:49:18.468Z,2.37
2017-09-10T20:51:44.808Z,1.67
2017-09-10T20:54:11.141Z,2.07
2017-09-10T20:56:37.535Z,1.77
2017-09-10T20:59:03.872Z,2.47
2017-09-10T21:01:30.260Z,3.77
2017-09-10T21:03:56.598Z,1.80
2017-09-10T21:06:26.014Z,3.60
2017-09-10T21:08:52.972Z,1.60
2017-09-10T21:11:19.185Z,2.70
2017-09-10T21:13:46.134Z,2.00
2017-09-10T21:16:12.309Z,2.20
2017-09-10T21:18:38.500Z,2.70
2017-09-10T21:21:04.636Z,1.63
2017-09-10T21:23:31.660Z,3.50
2017-09-10T21:26:00.621Z,4.13
2017-09-10T21:28:26.873Z,1.43
2017-09-10T21:30:53.015Z,1.93
2017-09-10T21:33:19.174Z,2.30
2017-09-10T21:35:45.309Z,3.97
2017-09-10T21:38:11.442Z,2.37
2017-09-10T21:40:37.591Z,2.30
2017-09-10T21:43:03.805Z,2.33
2017-09-10T21:45:29.981Z,3.63
2017-09-10T21:47:56.172Z,3.90
2017-09-10T21:50:22.321Z,1.60
2017-09-10T21:52:48.484Z,1.37
2017-09-10T21:55:14.658Z,1.33
2017-09-10T21:57:40.810Z,1.43
2017-09-10T22:00:06.945Z,3.30
2017-09-10T22:02:33.169Z,2.00
2017-09-10T22:04:59.347Z,1.73
2017-09-10T22:07:25.725Z,1.87
2017-09-10T22:09:51.933Z,1.40
2017-09-10T22:12:18.101Z,1.80
2017-09-10T22:14:44.254Z,1.37
2017-09-10T22:17:10.417Z,2.20
2017-09-10T22:19:37.863Z,2.60
2017-09-10T22:22:03.994Z,2.20
2017-09-10T22:24:30.136Z,2.60
2017-09-10T22:26:57.077Z,6.00
2017-09-10T22:29:23.953Z,1.47
2017-09-10T22:31:50.133Z,8.40
2017-09-10T22:34:16.589Z,3.00
2017-09-10T22:36:42.766Z,3.63
2017-09-10T22:39:10.203Z,1.33
2017-09-10T22:41:36.360Z,2.13
2017-09-10T22:44:02.563Z,3.33
2017-09-10T22:46:28.728Z,2.30
2017-09-10T22:48:55.658Z,1.30
2017-09-10T22:51:21.853Z,2.30
2017-09-10T22:53:48.018Z,3.40
2017-09-10T22:56:14.152Z,1.90
2017-09-10T22:58:40.334Z,2.03
2017-09-10T23:01:06.506Z,3.00
2017-09-10T23:03:32.843Z,5.00
2017-09-10T23:05:59.732Z,3.00
2017-09-10T23:08:25.909Z,4.13
2017-09-10T23:10:52.062Z,1.50
2017-09-10T23:13:18.461Z,1.70
2017-09-10T23:15:44.865Z,3.30
2017-09-10T23:18:11.263Z,2.10
2017-09-10T23:20:38.361Z,2.93
2017-09-10T23:23:04.529Z,4.20
2017-09-10T23:25:30.727Z,3.40
2017-09-10T23:27:57.689Z,2.10
2017-09-10T23:30:25.444Z,6.10
2017-09-10T23:32:51.633Z,2.63
2017-09-10T23:35:17.824Z,1.60
2017-09-10T23:37:44.001Z,3.73
2017-09-10T23:40:10.187Z,1.93
2017-09-10T23:42:37.304Z,3.00
2017-09-10T23:45:04.275Z,4.77
2017-09-10T23:47:30.429Z,3.10
2017-09-10T23:49:56.607Z,2.40
2017-09-10T23:52:26.827Z,2.17
2017-09-10T23:54:53.001Z,3.90
2017-09-10T23:57:19.173Z,3.87
2017-09-10T23:59:45.340Z,2.40
